Terminal Aerodrome Forecast
Issued by NWS Paducah, KY

Home | Current Version | Previous Version | Text Only | Print | Product List | Glossary Off
Versions: 1 2 3 4 5 6 7 8 9 10 11 12 13 14 15 16 17 18 19 20

559
FTUS43 KPAH 241720
TAFPAH
TAF
KPAH 241720Z 2418/2518 20006KT P6SM SCT025 BKN035
      TEMPO 2418/2420 BKN025
     FM242000 19006KT P6SM SCT040 BKN150
     FM250100 VRB03KT P6SM SCT150
     FM250600 00000KT P6SM SCT100
      TEMPO 2509/2512 5SM BR
     FM251400 21004KT P6SM SCT015
     FM251700 23006KT P6SM SCT025=

USA.gov is the U.S. government's official web portal to all federal, state and local government web resources and services.